Time;durP1;ratioP1;P1;durP2;ratioP2;P2;SDS_P1;SDS_P2;PMS_P1;PMS_P2;Temp;Humidity;BMP_temperature;BMP_pressure;BME280_temperature;BME280_humidity;BME280_pressure;Samples;Min_cycle;Max_cycle;Signal;HPM_P1;HPM_P2
2022/01/25 00:08:21;;;;;;;82.70;37.20;;;;;;;-5.78;66.99;100450.23;106123;1274;99206;-73
2022/01/25 00:26:21;;;;;;;78.90;35.00;;;;;;;-5.38;67.15;100440.13;106148;1274;99186;-76
2022/01/25 00:29:02;;;;;;;81.40;34.60;;;;;;;-5.34;67.21;100435.17;106104;1274;112748;-72
2022/01/25 00:31:37;;;;;;;75.90;37.50;;;;;;;-5.33;67.13;100430.52;106030;1275;99298;-72
2022/01/25 00:34:05;;;;;;;74.30;35.40;;;;;;;-5.30;67.24;100425.02;106146;1273;107771;-74
2022/01/25 00:36:36;;;;;;;76.70;36.20;;;;;;;-5.26;67.23;100424.19;106120;1274;98663;-73
2022/01/25 00:39:07;;;;;;;71.90;33.90;;;;;;;-5.21;67.27;100425.14;106145;1273;99319;-74
2022/01/25 00:41:35;;;;;;;78.80;35.40;;;;;;;-5.16;67.17;100426.93;106094;1274;112643;-74
2022/01/25 00:44:06;;;;;;;79.80;35.50;;;;;;;-5.13;67.27;100424.55;106133;1272;96538;-73
2022/01/25 00:46:35;;;;;;;77.60;34.60;;;;;;;-5.11;67.17;100422.85;106191;1274;107713;-76
2022/01/25 00:49:07;;;;;;;77.60;34.90;;;;;;;-5.09;67.24;100422.19;106120;1273;99239;-76
2022/01/25 00:56:55;;;;;;;78.60;33.90;;;;;;;-5.00;67.30;100417.64;106098;1274;96547;-76
2022/01/25 00:59:31;;;;;;;82.70;37.70;;;;;;;-4.97;67.26;100420.79;106041;1274;107778;-76
2022/01/25 01:02:08;;;;;;;80.20;32.90;;;;;;;-4.93;67.21;100416.84;106134;1274;99405;-75
2022/01/25 01:04:42;;;;;;;78.90;36.60;;;;;;;-4.94;67.32;100412.00;106172;1274;96635;-74
2022/01/25 01:07:15;;;;;;;80.80;38.20;;;;;;;-4.96;67.12;100402.80;106146;1273;111856;-74
2022/01/25 01:09:49;;;;;;;86.50;38.60;;;;;;;-5.01;67.23;100401.70;106272;1274;99201;-72
2022/01/25 01:29:23;;;;;;;80.80;36.30;;;;;;;-4.93;67.38;100384.15;106151;1274;99896;-74
2022/01/25 01:32:04;;;;;;;71.90;33.40;;;;;;;-4.87;67.38;100379.17;106159;1274;96630;-74
2022/01/25 01:45:35;;;;;;;75.40;35.60;;;;;;;-4.59;67.37;100356.47;106173;1274;99301;-74
2022/01/25 01:48:25;;;;;;;78.60;35.60;;;;;;;-4.55;67.44;100350.98;106128;1274;111254;-74
2022/01/25 01:51:04;;;;;;;79.20;35.90;;;;;;;-4.49;67.56;100344.27;106155;1273;99289;-75
2022/01/25 01:53:38;;;;;;;81.50;37.00;;;;;;;-4.43;67.39;100345.54;106134;1274;107498;-74
2022/01/25 01:56:06;;;;;;;75.80;35.50;;;;;;;-4.40;67.50;100339.50;106105;1274;97709;-75
2022/01/25 01:58:38;;;;;;;79.40;39.40;;;;;;;-4.37;67.47;100340.39;106150;1274;98337;-74
2022/01/25 02:01:12;;;;;;;76.80;36.70;;;;;;;-4.35;67.33;100336.09;106162;1274;112734;-73
2022/01/25 02:03:43;;;;;;;77.90;37.10;;;;;;;-4.31;67.57;100335.60;106212;1274;99298;-73
2022/01/25 02:06:11;;;;;;;86.50;41.20;;;;;;;-4.29;67.29;100335.44;106119;1273;106665;-74
2022/01/25 02:08:42;;;;;;;81.50;40.20;;;;;;;-4.26;67.47;100332.35;106090;1274;99250;-75
2022/01/25 02:11:13;;;;;;;91.10;43.50;;;;;;;-4.24;67.48;100332.36;106083;1274;99227;-73
2022/01/25 02:13:45;;;;;;;90.90;40.80;;;;;;;-4.22;67.43;100328.05;106089;1274;112343;-74
2022/01/25 02:24:39;;;;;;;87.40;40.70;;;;;;;-4.21;67.44;100302.77;106035;1274;98431;-74
2022/01/25 02:27:09;;;;;;;86.70;40.60;;;;;;;-4.18;67.50;100298.81;106149;1274;112620;-74
2022/01/25 02:29:42;;;;;;;87.70;44.70;;;;;;;-4.15;67.65;100298.65;106136;1274;96561;-75
2022/01/25 02:32:14;;;;;;;89.60;40.30;;;;;;;-4.11;67.67;100296.43;106155;1274;107675;-75
2022/01/25 02:34:44;;;;;;;84.90;39.50;;;;;;;-4.07;67.57;100292.82;106123;1274;100019;-74
2022/01/25 02:37:16;;;;;;;97.30;43.30;;;;;;;-4.03;67.60;100291.46;106119;1274;97923;-75
2022/01/25 02:39:45;;;;;;;86.30;42.20;;;;;;;-4.00;67.71;100288.70;106174;1273;113212;-73
2022/01/25 02:42:19;;;;;;;92.90;42.90;;;;;;;-3.96;67.66;100287.01;106191;1273;99225;-75
2022/01/25 02:44:48;;;;;;;90.70;40.30;;;;;;;-3.93;67.66;100287.89;106130;1273;107719;-74
2022/01/25 02:50:08;;;;;;;94.90;47.80;;;;;;;-3.84;67.63;100281.52;106124;1274;99105;-72
2022/01/25 02:52:39;;;;;;;93.40;42.00;;;;;;;-3.78;67.63;100278.79;106101;1274;112352;-73
2022/01/25 02:55:07;;;;;;;89.70;42.70;;;;;;;-3.73;67.78;100273.95;106099;1274;99400;-74
2022/01/25 02:57:35;;;;;;;91.00;40.90;;;;;;;-3.68;67.69;100272.77;106169;1274;107729;-73
2022/01/25 03:00:07;;;;;;;88.70;43.40;;;;;;;-3.65;67.67;100273.47;106093;1274;99322;-72
2022/01/25 03:02:38;;;;;;;87.10;41.70;;;;;;;-3.61;67.77;100274.00;106135;1273;96583;-75
2022/01/25 03:05:08;;;;;;;96.30;45.10;;;;;;;-3.57;67.78;100277.32;106142;1274;113502;-73
2022/01/25 03:07:44;;;;;;;88.60;40.40;;;;;;;-3.54;67.67;100273.88;106180;1274;97221;-75
2022/01/25 03:10:12;;;;;;;89.10;42.00;;;;;;;-3.50;67.75;100270.42;106148;1274;107780;-75
2022/01/25 03:12:48;;;;;;;91.50;42.80;;;;;;;-3.46;67.74;100270.43;106155;1274;99896;-75
2022/01/25 03:17:58;;;;;;;88.60;40.80;;;;;;;-3.36;67.96;100263.17;106181;1274;112753;-75
2022/01/25 03:20:49;;;;;;;93.20;42.30;;;;;;;-3.33;67.61;100257.82;106185;1274;97223;-75
2022/01/25 03:23:21;;;;;;;82.50;40.30;;;;;;;-3.28;67.73;100256.80;106181;1274;107837;-75
2022/01/25 03:25:52;;;;;;;88.10;40.60;;;;;;;-3.24;67.80;100255.06;105946;1274;97337;-74
2022/01/25 03:28:23;;;;;;;79.50;40.10;;;;;;;-3.21;67.83;100254.02;106107;1274;96640;-75
2022/01/25 03:30:51;;;;;;;81.70;41.00;;;;;;;-3.19;67.70;100248.14;103937;1274;3103000;-76
2022/01/25 03:33:24;;;;;;;77.10;37.90;;;;;;;-3.15;67.55;100245.55;106236;1274;99185;-75
2022/01/25 03:35:52;;;;;;;80.40;40.40;;;;;;;-3.13;67.63;100251.98;106208;1274;108223;-74
2022/01/25 03:38:20;;;;;;;84.90;41.90;;;;;;;-3.10;67.75;100253.90;106109;1274;99343;-73
2022/01/25 03:40:51;;;;;;;82.10;39.50;;;;;;;-3.05;67.86;100254.42;106153;1274;99214;-73
2022/01/25 03:43:19;;;;;;;91.80;41.60;;;;;;;-3.02;68.02;100253.20;106087;1274;112546;-72
2022/01/25 03:46:00;;;;;;;89.00;43.50;;;;;;;-2.98;67.84;100247.31;106146;1274;99939;-75
2022/01/25 03:51:02;;;;;;;81.40;39.20;;;;;;;-2.91;67.84;100246.11;106137;1274;99299;-73
2022/01/25 03:53:30;;;;;;;83.50;39.80;;;;;;;-2.87;67.95;100239.00;106140;1274;99227;-71
2022/01/25 03:55:57;;;;;;;92.20;43.00;;;;;;;-2.85;67.85;100232.05;106222;1274;112427;-70
2022/01/25 03:58:26;;;;;;;84.30;39.70;;;;;;;-2.82;67.81;100228.77;106153;1274;99085;-73
2022/01/25 04:00:57;;;;;;;79.60;38.80;;;;;;;-2.79;67.95;100225.45;106215;1274;107704;-71
2022/01/25 04:03:34;;;;;;;87.60;38.90;;;;;;;-2.76;68.09;100223.38;106132;1274;99217;-73
2022/01/25 04:06:05;;;;;;;86.40;40.20;;;;;;;-2.74;68.11;100217.83;106135;1274;99309;-72
2022/01/25 04:08:36;;;;;;;81.60;38.70;;;;;;;-2.71;67.92;100222.87;106134;1273;112714;-73
2022/01/25 04:11:07;;;;;;;86.30;38.10;;;;;;;-2.68;68.10;100222.36;106217;1273;99290;-71
2022/01/25 04:13:35;;;;;;;80.30;36.40;;;;;;;-2.65;67.98;100221.48;106168;1271;107742;-73
2022/01/25 04:16:13;;;;;;;84.50;40.50;;;;;;;-2.62;68.02;100220.09;106142;1273;96731;-75
2022/01/25 04:27:00;;;;;;;81.70;38.60;;;;;;;-2.53;68.12;100203.92;106154;1274;107619;-74
2022/01/25 04:29:28;;;;;;;79.70;38.20;;;;;;;-2.52;68.14;100202.89;106175;1274;99220;-72
2022/01/25 04:31:56;;;;;;;78.20;37.50;;;;;;;-2.49;68.22;100199.42;106127;1274;99238;-72
2022/01/25 04:53:27;;;;;;;77.70;38.50;;;;;;;-2.38;68.37;100189.15;106049;1274;107816;-73
2022/01/25 04:56:10;;;;;;;74.50;36.30;;;;;;;-2.35;68.11;100191.92;106122;1274;99250;-74
2022/01/25 04:58:53;;;;;;;75.30;37.50;;;;;;;-2.35;68.49;100182.73;106120;1274;99187;-72
2022/01/25 05:01:25;;;;;;;74.40;37.50;;;;;;;-2.34;68.28;100182.36;106142;1274;112762;-72
2022/01/25 05:06:22;;;;;;;79.50;36.90;;;;;;;-2.29;68.36;100189.66;106121;1274;107409;-73
2022/01/25 05:08:56;;;;;;;78.80;36.30;;;;;;;-2.26;68.49;100191.74;106170;1274;99221;-72
2022/01/25 05:11:31;;;;;;;83.30;40.20;;;;;;;-2.23;68.83;100195.02;106170;1274;99310;-74
2022/01/25 05:16:46;;;;;;;79.30;37.80;;;;;;;-2.18;68.39;100190.66;106250;1274;99328;-73
2022/01/25 05:24:45;;;;;;;80.20;36.80;;;;;;;-2.17;68.39;100181.98;106137;1274;99375;-73
2022/01/25 05:27:16;;;;;;;83.50;41.80;;;;;;;-2.16;68.32;100177.45;106112;1274;112765;-72
2022/01/25 05:29:48;;;;;;;70.80;34.90;;;;;;;-2.14;68.37;100168.77;106109;1274;97191;-73
2022/01/25 05:32:19;;;;;;;76.40;39.30;;;;;;;-2.15;68.53;100163.02;106082;1274;107798;-74
2022/01/25 05:34:47;;;;;;;75.10;37.90;;;;;;;-2.17;68.35;100159.04;106069;1274;96640;-72
2022/01/25 05:37:15;;;;;;;76.30;38.40;;;;;;;-2.19;68.38;100159.91;106101;1274;99242;-72
2022/01/25 05:39:45;;;;;;;83.90;39.30;;;;;;;-2.20;68.61;100155.21;106028;1274;112712;-73
2022/01/25 05:42:32;;;;;;;78.00;39.00;;;;;;;-2.21;68.48;100153.48;106122;1274;99724;-71
2022/01/25 05:45:18;;;;;;;87.90;41.50;;;;;;;-2.23;68.58;100150.02;106101;1274;107758;-68
2022/01/25 05:47:50;;;;;;;84.80;40.10;;;;;;;-2.23;68.46;100148.27;106090;1274;99240;-73
2022/01/25 05:50:18;;;;;;;93.80;44.90;;;;;;;-2.22;68.67;100147.75;106174;1274;99339;-71
2022/01/25 05:52:46;;;;;;;90.60;47.10;;;;;;;-2.21;68.43;100151.74;106141;1274;112859;-72
2022/01/25 05:55:14;;;;;;;98.20;45.40;;;;;;;-2.20;68.65;100146.19;106129;1274;99303;-70
2022/01/25 05:57:42;;;;;;;84.90;41.80;;;;;;;-2.21;68.75;100144.44;106095;1274;107960;-71
2022/01/25 06:00:11;;;;;;;91.80;44.70;;;;;;;-2.22;68.51;100141.84;106072;1274;98333;-71
2022/01/25 06:02:39;;;;;;;80.80;41.50;;;;;;;-2.22;68.72;100137.67;106109;1274;97681;-70
2022/01/25 06:05:08;;;;;;;90.90;45.10;;;;;;;-2.22;68.70;100130.03;106071;1274;112766;-69
2022/01/25 06:07:40;;;;;;;88.80;43.80;;;;;;;-2.20;68.54;100131.23;106056;1273;101032;-69
2022/01/25 06:10:09;;;;;;;85.00;42.60;;;;;;;-2.20;68.64;100129.67;106019;1274;108339;-70
2022/01/25 06:12:37;;;;;;;82.50;41.70;;;;;;;-2.19;68.64;100132.45;106055;1274;99792;-67
2022/01/25 06:15:05;;;;;;;83.10;40.60;;;;;;;-2.17;68.76;100123.77;106151;1274;99310;-72
2022/01/25 06:17:33;;;;;;;75.20;39.00;;;;;;;-2.16;68.91;100118.90;106186;1274;112815;-72
2022/01/25 06:20:01;;;;;;;83.70;42.20;;;;;;;-2.15;68.67;100116.27;106067;1274;100026;-73
2022/01/25 06:22:28;;;;;;;80.90;41.70;;;;;;;-2.13;68.86;100114.54;106098;1274;106718;-71
2022/01/25 06:24:58;;;;;;;79.10;38.10;;;;;;;-2.12;68.76;100109.66;106105;1274;99326;-70
2022/01/25 06:27:29;;;;;;;84.60;41.40;;;;;;;-2.12;68.63;100109.67;106133;1273;99307;-72
2022/01/25 06:29:57;;;;;;;80.90;40.10;;;;;;;-2.12;68.90;100111.39;106055;1274;112654;-72
2022/01/25 06:32:27;;;;;;;74.50;35.70;;;;;;;-2.12;68.91;100109.14;105992;1274;99269;-74
2022/01/25 06:34:55;;;;;;;74.30;37.70;;;;;;;-2.11;68.92;100105.33;106004;1274;108275;-73
2022/01/25 06:37:23;;;;;;;85.40;43.60;;;;;;;-2.10;68.78;100104.62;106073;1274;99255;-73
2022/01/25 06:39:51;;;;;;;77.30;39.20;;;;;;;-2.08;68.86;100100.96;106042;1274;99453;-73
2022/01/25 06:42:19;;;;;;;80.60;39.90;;;;;;;-2.07;69.08;100097.14;106051;1274;112746;-70
2022/01/25 06:44:47;;;;;;;74.10;37.50;;;;;;;-2.05;69.15;100099.73;106023;1274;99821;-73
2022/01/25 06:47:15;;;;;;;72.40;37.10;;;;;;;-2.05;69.11;100098.52;106123;1274;107452;-74
2022/01/25 06:49:43;;;;;;;78.80;39.20;;;;;;;-2.04;68.90;100107.02;106124;1274;99321;-71
2022/01/25 06:52:11;;;;;;;83.20;40.00;;;;;;;-2.04;69.19;100098.86;106075;1274;99182;-73
2022/01/25 06:54:41;;;;;;;77.50;38.20;;;;;;;-2.04;69.15;100098.33;106101;1274;112730;-72
2022/01/25 06:57:08;;;;;;;80.50;42.50;;;;;;;-2.02;69.22;100095.71;106085;1274;99286;-71
2022/01/25 06:59:40;;;;;;;78.20;40.10;;;;;;;-1.99;69.21;100086.13;106039;1273;107814;-69
2022/01/25 07:02:08;;;;;;;77.90;41.00;;;;;;;-1.96;69.17;100080.73;106165;1274;99339;-71
2022/01/25 07:04:40;;;;;;;70.70;35.60;;;;;;;-1.93;69.43;100079.68;106189;1274;98817;-72
2022/01/25 07:07:09;;;;;;;74.20;38.50;;;;;;;-1.89;69.46;100078.61;106154;1274;111042;-71
2022/01/25 07:09:37;;;;;;;76.00;38.90;;;;;;;-1.85;69.24;100080.86;106131;1274;99239;-73
2022/01/25 07:12:05;;;;;;;76.00;39.60;;;;;;;-1.83;69.61;100088.48;106150;1272;108276;-73
2022/01/25 07:14:33;;;;;;;80.80;40.50;;;;;;;-1.80;69.30;100088.80;106125;1274;99869;-72
2022/01/25 07:17:01;;;;;;;69.40;33.40;;;;;;;-1.75;69.76;100085.14;106221;1274;99173;-71
2022/01/25 07:19:29;;;;;;;76.70;36.90;;;;;;;-1.72;69.74;100077.99;106167;1274;113575;-70
2022/01/25 07:21:57;;;;;;;74.30;39.50;;;;;;;-1.71;69.90;100073.98;106193;1274;99246;-72
2022/01/25 07:24:25;;;;;;;76.80;36.50;;;;;;;-1.69;69.89;100073.80;106183;1274;107692;-71
2022/01/25 07:26:53;;;;;;;74.70;35.30;;;;;;;-1.68;69.79;100064.92;106192;1274;99323;-74
2022/01/25 07:29:27;;;;;;;72.40;36.70;;;;;;;-1.65;70.03;100061.60;106283;1274;99199;-69
2022/01/25 07:31:57;;;;;;;69.50;34.20;;;;;;;-1.62;69.94;100062.80;106208;1274;112799;-72
2022/01/25 07:34:30;;;;;;;72.10;37.30;;;;;;;-1.58;69.92;100064.33;106185;1274;96617;-72
2022/01/25 07:37:12;;;;;;;70.30;34.50;;;;;;;-1.54;70.13;100062.56;106080;1274;109344;-73
2022/01/25 07:39:47;;;;;;;70.80;37.30;;;;;;;-1.51;70.03;100061.52;106116;1274;99323;-73
2022/01/25 07:42:24;;;;;;;75.20;38.10;;;;;;;-1.49;70.04;100060.27;106099;1274;99431;-72
2022/01/25 07:45:10;;;;;;;74.70;37.60;;;;;;;-1.46;69.97;100057.30;106137;1273;112321;-73
2022/01/25 07:47:39;;;;;;;72.60;38.10;;;;;;;-1.43;70.04;100056.58;106127;1274;98964;-73
2022/01/25 07:50:16;;;;;;;78.80;40.60;;;;;;;-1.40;70.11;100063.86;106119;1274;106235;-70
2022/01/25 07:52:44;;;;;;;84.60;42.10;;;;;;;-1.36;70.07;100064.87;106173;1274;99319;-72
2022/01/25 07:55:12;;;;;;;77.40;39.50;;;;;;;-1.32;70.42;100062.41;106206;1274;99195;-72
2022/01/25 07:57:40;;;;;;;77.10;40.00;;;;;;;-1.31;70.23;100062.06;106128;1274;112615;-72
2022/01/25 08:00:14;;;;;;;76.90;39.70;;;;;;;-1.28;70.21;100065.86;106198;1274;99178;-72
2022/01/25 08:02:46;;;;;;;76.50;41.90;;;;;;;-1.26;70.16;100062.02;106178;1274;107901;-72
2022/01/25 08:05:30;;;;;;;74.30;38.70;;;;;;;-1.25;70.46;100062.52;106124;1273;98889;-72
2022/01/25 08:08:14;;;;;;;75.50;39.30;;;;;;;-1.23;70.37;100052.77;106222;1274;99376;-73
2022/01/25 08:10:46;;;;;;;76.00;36.90;;;;;;;-1.19;70.35;100057.77;106107;1274;112903;-74
2022/01/25 08:13:17;;;;;;;78.10;38.90;;;;;;;-1.16;70.52;100061.58;106220;1273;99243;-73
2022/01/25 08:15:50;;;;;;;78.80;40.50;;;;;;;-1.12;70.62;100063.45;106093;1273;107775;-74
2022/01/25 08:18:18;;;;;;;82.70;41.60;;;;;;;-1.08;70.42;100061.34;106246;1274;100067;-71
2022/01/25 08:20:50;;;;;;;70.70;36.20;;;;;;;-1.04;70.49;100052.77;106219;1274;96598;-72
2022/01/25 08:23:34;;;;;;;74.00;39.10;;;;;;;-1.01;70.65;100052.56;106192;1274;112673;-71
2022/01/25 08:26:12;;;;;;;81.90;42.90;;;;;;;-0.97;70.58;100052.52;106196;1273;99236;-73
2022/01/25 08:28:41;;;;;;;79.30;41.70;;;;;;;-0.94;70.54;100057.20;106057;1274;107736;-73
2022/01/25 08:31:09;;;;;;;77.10;39.30;;;;;;;-0.92;70.75;100055.09;106190;1274;99192;-72
2022/01/25 08:33:42;;;;;;;61.40;31.50;;;;;;;-0.87;70.74;100051.91;106194;1274;97683;-72
2022/01/25 08:36:14;;;;;;;74.50;38.80;;;;;;;-0.82;70.86;100050.12;106166;1274;112674;-72
2022/01/25 08:38:48;;;;;;;81.90;41.30;;;;;;;-0.78;70.81;100045.71;106192;1274;99380;-72
2022/01/25 08:41:17;;;;;;;80.00;39.70;;;;;;;-0.74;70.81;100041.67;106197;1274;106987;-72
2022/01/25 08:44:04;;;;;;;77.20;39.30;;;;;;;-0.69;71.10;100039.36;106138;1274;96721;-73
2022/01/25 08:46:33;;;;;;;75.90;39.60;;;;;;;-0.62;71.01;100038.07;106141;1274;99156;-74
2022/01/25 08:49:05;;;;;;;76.70;39.10;;;;;;;-0.58;71.09;100034.88;106090;1273;112759;-74
2022/01/25 08:51:34;;;;;;;82.00;44.50;;;;;;;-0.54;71.04;100036.92;106095;1274;99305;-75
2022/01/25 08:54:02;;;;;;;73.80;35.90;;;;;;;-0.52;71.25;100029.75;106169;1274;107685;-73
2022/01/25 08:56:34;;;;;;;84.30;41.80;;;;;;;-0.47;71.23;100028.65;106019;1274;99236;-77
2022/01/25 08:59:02;;;;;;;78.90;40.70;;;;;;;-0.42;71.49;100028.42;106113;1274;99309;-76
2022/01/25 09:01:30;;;;;;;90.30;44.30;;;;;;;-0.37;71.39;100025.92;106170;1273;111334;-74
2022/01/25 09:04:01;;;;;;;73.50;36.60;;;;;;;-0.32;71.56;100024.28;106110;1274;99320;-73
2022/01/25 09:06:32;;;;;;;74.20;38.00;;;;;;;-0.25;71.56;100027.01;106099;1274;109378;-74
2022/01/25 09:09:05;;;;;;;69.30;36.30;;;;;;;-0.19;71.65;100023.42;106130;1274;99229;-74
2022/01/25 09:11:37;;;;;;;63.60;32.60;;;;;;;-0.12;71.53;100019.50;106234;1274;97973;-72
2022/01/25 09:14:08;;;;;;;71.10;36.60;;;;;;;-0.07;71.67;100020.66;106031;1274;112640;-75
2022/01/25 09:16:39;;;;;;;65.50;33.20;;;;;;;-0.03;71.70;100013.98;106058;1274;99106;-73
2022/01/25 09:19:07;;;;;;;60.20;30.60;;;;;;;0.02;72.54;100009.02;106023;1275;107735;-73
2022/01/25 09:21:38;;;;;;;66.80;34.60;;;;;;;0.07;72.28;100007.38;106154;1274;99293;-76
2022/01/25 09:24:10;;;;;;;66.80;35.30;;;;;;;0.11;72.05;100004.88;106023;1274;99188;-74
2022/01/25 09:26:38;;;;;;;60.00;30.40;;;;;;;0.18;71.88;100006.01;106111;1274;114166;-74
2022/01/25 09:29:05;;;;;;;63.20;32.10;;;;;;;0.23;72.10;100006.60;106063;1275;98995;-74
2022/01/25 09:31:33;;;;;;;61.40;30.80;;;;;;;0.28;72.44;100006.18;106085;1274;107619;-75
2022/01/25 09:34:04;;;;;;;61.90;31.70;;;;;;;0.32;72.11;100000.04;106077;1274;97328;-73
2022/01/25 09:36:33;;;;;;;67.00;33.60;;;;;;;0.35;72.08;100002.95;106155;1273;99294;-73
2022/01/25 09:39:05;;;;;;;56.60;31.10;;;;;;;0.41;72.14;99995.86;106170;1274;112821;-75
2022/01/25 09:41:34;;;;;;;63.40;32.70;;;;;;;0.46;72.32;99989.86;106109;1274;99330;-73
2022/01/25 09:44:02;;;;;;;60.50;29.90;;;;;;;0.48;72.52;99983.89;106079;1274;107412;-74
2022/01/25 09:46:30;;;;;;;58.50;30.10;;;;;;;0.51;72.56;99982.10;106071;1274;96642;-75
2022/01/25 09:48:58;;;;;;;55.50;28.50;;;;;;;0.53;72.39;99976.66;106064;1275;99205;-73
2022/01/25 09:51:27;;;;;;;58.50;30.20;;;;;;;0.55;72.39;99979.93;106037;1274;112781;-76
2022/01/25 09:53:54;;;;;;;58.10;31.80;;;;;;;0.60;72.40;99973.06;105943;1274;100120;-76
2022/01/25 09:56:22;;;;;;;57.80;30.30;;;;;;;0.64;72.57;99972.10;106024;1274;107883;-74
2022/01/25 09:58:54;;;;;;;51.80;27.90;;;;;;;0.67;72.32;99970.66;106215;1274;97705;-74
2022/01/25 10:01:30;;;;;;;51.80;26.70;;;;;;;0.70;72.44;99964.67;106157;1274;99220;-73
2022/01/25 10:04:05;;;;;;;51.80;26.70;;;;;;;0.72;72.48;99967.61;106193;1274;113369;-73
2022/01/25 10:06:35;;;;;;;47.90;24.30;;;;;;;0.74;72.50;99963.38;106234;1274;99264;-74
2022/01/25 10:09:03;;;;;;;55.70;27.10;;;;;;;0.76;72.46;99965.45;106062;1274;108986;-73
2022/01/25 10:11:31;;;;;;;53.70;27.10;;;;;;;0.78;72.62;99960.16;106035;1274;99856;-73
2022/01/25 10:13:59;;;;;;;51.40;24.70;;;;;;;0.81;72.71;99956.80;106200;1274;99322;-74
2022/01/25 10:16:35;;;;;;;48.10;23.60;;;;;;;0.84;72.64;99957.07;106131;1274;112605;-73
2022/01/25 10:19:10;;;;;;;50.60;24.20;;;;;;;0.86;72.71;99957.02;106134;1274;99311;-71
2022/01/25 10:21:43;;;;;;;50.10;27.40;;;;;;;0.87;72.69;99954.92;106069;1274;107784;-74
2022/01/25 10:24:16;;;;;;;51.70;29.10;;;;;;;0.87;72.73;99949.68;106089;1274;99794;-73
2022/01/25 10:26:50;;;;;;;52.30;27.40;;;;;;;0.89;72.64;99949.48;106124;1274;99378;-72
2022/01/25 10:29:23;;;;;;;57.10;27.20;;;;;;;0.92;72.84;99949.25;106146;1274;112822;-71
2022/01/25 10:31:58;;;;;;;53.00;28.50;;;;;;;0.92;72.73;99947.69;106073;1275;99122;-72
2022/01/25 10:34:36;;;;;;;52.40;26.80;;;;;;;0.92;72.95;99940.88;106009;1274;107715;-71
2022/01/25 10:37:09;;;;;;;54.40;28.40;;;;;;;0.93;72.92;99939.98;106122;1274;99300;-72
2022/01/25 10:39:44;;;;;;;52.00;24.40;;;;;;;0.94;72.93;99937.17;106107;1274;96693;-71
2022/01/25 10:42:23;;;;;;;51.70;27.50;;;;;;;0.95;72.82;99931.56;106074;1274;112762;-72
2022/01/25 10:45:02;;;;;;;57.10;28.70;;;;;;;0.95;72.89;99928.42;106149;1274;99286;-73
2022/01/25 10:47:44;;;;;;;58.50;29.50;;;;;;;0.95;73.10;99923.88;106028;1274;107854;-72
2022/01/25 10:50:20;;;;;;;52.80;26.40;;;;;;;0.94;73.08;99919.70;106054;1274;99287;-74
2022/01/25 10:53:11;;;;;;;50.10;26.30;;;;;;;0.95;72.97;99909.21;106187;1274;99248;-72
2022/01/25 10:55:45;;;;;;;47.80;25.30;;;;;;;0.98;73.29;99910.36;106088;1274;112702;-72
2022/01/25 10:58:16;;;;;;;49.20;25.90;;;;;;;1.01;73.12;99906.27;106110;1274;98920;-74
2022/01/25 11:00:51;;;;;;;51.30;27.50;;;;;;;1.04;72.97;99905.52;106082;1274;107774;-74
2022/01/25 11:03:31;;;;;;;54.40;27.30;;;;;;;1.07;73.00;99905.11;105983;1274;99090;-73
2022/01/25 11:06:13;;;;;;;49.10;24.90;;;;;;;1.09;73.19;99904.91;106198;1274;99355;-76
2022/01/25 11:08:48;;;;;;;54.30;27.50;;;;;;;1.12;73.08;99901.52;106187;1273;112746;-73
2022/01/25 11:11:34;;;;;;;49.70;24.70;;;;;;;1.14;72.85;99896.77;107889;1274;97473;-76
2022/01/25 11:16:52;;;;;;;50.80;27.60;;;;;;;1.18;73.16;99885.67;107962;1273;97345;-75
2022/01/25 11:19:22;;;;;;;52.00;26.40;;;;;;;1.20;73.03;99882.67;106678;1273;99217;-75
2022/01/25 11:21:52;;;;;;;50.20;25.80;;;;;;;1.23;73.11;99878.07;106073;1274;112411;-74
2022/01/25 11:24:21;;;;;;;49.80;27.00;;;;;;;1.26;73.25;99879.38;107911;1273;97313;-74
2022/01/25 11:26:53;;;;;;;44.60;22.80;;;;;;;1.25;73.23;99867.54;106225;1274;107734;-72
2022/01/25 11:29:21;;;;;;;47.10;22.80;;;;;;;1.26;73.06;99866.98;106136;1274;100029;-73
2022/01/25 11:32:05;;;;;;;48.90;25.80;;;;;;;1.29;73.15;99863.26;106189;1274;99355;-73
2022/01/25 11:34:39;;;;;;;51.20;25.70;;;;;;;1.33;73.40;99858.27;106198;1273;112856;-73
2022/01/25 11:37:09;;;;;;;50.30;26.10;;;;;;;1.37;73.25;99861.52;106143;1274;99176;-74
2022/01/25 11:39:46;;;;;;;54.00;27.30;;;;;;;1.38;73.12;99860.08;106159;1273;107820;-74
2022/01/25 11:42:23;;;;;;;49.80;27.10;;;;;;;1.42;73.20;99865.61;106132;1274;99269;-74
2022/01/25 11:44:56;;;;;;;46.10;23.40;;;;;;;1.44;73.20;99860.81;106124;1274;100013;-71
2022/01/25 11:47:36;;;;;;;43.40;21.80;;;;;;;1.46;73.19;99862.73;106209;1274;114122;-72
2022/01/25 11:50:10;;;;;;;45.10;23.80;;;;;;;1.45;73.40;99866.04;106141;1274;96735;-72
2022/01/25 11:52:52;;;;;;;47.40;26.20;;;;;;;1.44;73.23;99865.89;106184;1274;107707;-72
2022/01/25 11:55:39;;;;;;;48.70;27.00;;;;;;;1.40;73.36;99865.30;106196;1274;97810;-73
2022/01/25 11:58:11;;;;;;;51.60;27.70;;;;;;;1.36;73.19;99865.73;106151;1274;97364;-73
2022/01/25 12:00:48;;;;;;;49.70;28.10;;;;;;;1.32;73.25;99862.30;106113;1274;111681;-74
2022/01/25 12:03:22;;;;;;;53.00;27.70;;;;;;;1.32;73.34;99860.57;106090;1274;99914;-69
2022/01/25 12:06:04;;;;;;;48.70;25.60;;;;;;;1.30;73.22;99864.80;106135;1274;107617;-74
2022/01/25 12:08:53;;;;;;;55.80;28.60;;;;;;;1.29;73.28;99861.68;106116;1274;99269;-73
2022/01/25 12:11:51;;;;;;;53.40;28.30;;;;;;;1.28;73.35;99852.42;106141;1274;97279;-74
2022/01/25 12:14:28;;;;;;;50.10;26.00;;;;;;;1.31;73.41;99843.31;106081;1274;112800;-73
2022/01/25 12:17:11;;;;;;;47.00;24.80;;;;;;;1.31;73.51;99841.52;106148;1274;99342;-71
2022/01/25 12:19:58;;;;;;;52.30;28.30;;;;;;;1.32;73.33;99845.89;105958;1274;110206;-74
2022/01/25 12:22:47;;;;;;;50.90;25.70;;;;;;;1.33;73.42;99846.02;106242;1274;99184;-74
2022/01/25 12:25:27;;;;;;;53.60;27.10;;;;;;;1.34;73.42;99842.34;106109;1275;97147;-74
2022/01/25 12:27:59;;;;;;;52.10;28.10;;;;;;;1.35;73.48;99842.85;106102;1274;112729;-73
2022/01/25 12:30:34;;;;;;;48.20;25.50;;;;;;;1.37;73.30;99843.35;106093;1274;99049;-72
2022/01/25 12:33:24;;;;;;;48.80;24.40;;;;;;;1.37;73.65;99837.57;106067;1274;107655;-73
2022/01/25 12:36:03;;;;;;;50.50;26.60;;;;;;;1.37;73.59;99831.80;106104;1274;99320;-73
2022/01/25 12:38:46;;;;;;;49.80;25.70;;;;;;;1.37;73.43;99835.13;107904;1274;97414;-73
2022/01/25 12:41:20;;;;;;;50.80;25.60;;;;;;;1.37;73.59;99834.44;106794;1274;113252;-73
2022/01/25 12:43:59;;;;;;;47.80;23.90;;;;;;;1.36;73.37;99824.31;106135;1274;99241;-72
2022/01/25 12:46:34;;;;;;;48.20;25.00;;;;;;;1.37;73.22;99827.95;106109;1273;107762;-72
2022/01/25 12:49:11;;;;;;;45.30;21.60;;;;;;;1.38;73.27;99826.89;106141;1274;99206;-74
2022/01/25 12:51:44;;;;;;;47.00;22.60;;;;;;;1.37;73.48;99823.77;106272;1274;99229;-74
2022/01/25 12:54:17;;;;;;;48.30;24.70;;;;;;;1.35;73.27;99823.98;106229;1273;112548;-73
2022/01/25 12:56:50;;;;;;;50.40;26.00;;;;;;;1.33;73.53;99822.44;106155;1274;99160;-72
2022/01/25 12:59:23;;;;;;;50.40;24.30;;;;;;;1.33;73.40;99818.60;106167;1274;108019;-72
2022/01/25 13:01:54;;;;;;;49.70;25.00;;;;;;;1.33;73.19;99818.27;106093;1274;99291;-71
2022/01/25 13:04:24;;;;;;;53.70;25.90;;;;;;;1.34;73.33;99817.19;106162;1273;99302;-71
2022/01/25 13:06:52;;;;;;;47.30;24.90;;;;;;;1.33;73.55;99816.00;106130;1274;112689;-71
2022/01/25 13:09:33;;;;;;;49.50;25.70;;;;;;;1.33;73.65;99813.54;106073;1274;97676;-71
2022/01/25 13:17:12;;;;;;;48.30;25.20;;;;;;;1.29;73.32;99811.71;106196;1274;96641;-72
2022/01/25 13:19:45;;;;;;;44.20;22.10;;;;;;;1.30;73.56;99810.98;106133;1274;112610;-72
2022/01/25 13:22:31;;;;;;;45.30;22.70;;;;;;;1.30;73.54;99810.11;106094;1274;98981;-72
2022/01/25 13:27:58;;;;;;;46.90;23.60;;;;;;;1.31;73.59;99810.95;106081;1274;99213;-73
2022/01/25 13:30:41;;;;;;;51.50;26.70;;;;;;;1.28;73.76;99815.56;106635;1274;97259;-73